createdAt,value
2018-08-06T00:00:12.429Z,21.60
2018-08-06T00:02:40.615Z,21.50
2018-08-06T00:05:08.792Z,21.60
2018-08-06T00:07:36.945Z,21.50
2018-08-06T00:10:08.312Z,21.60
2018-08-06T00:12:36.473Z,21.50
2018-08-06T00:15:06.673Z,21.50
2018-08-06T00:17:34.840Z,21.50
2018-08-06T00:20:03.009Z,21.50
2018-08-06T00:22:31.136Z,21.60
2018-08-06T00:24:59.326Z,21.60
2018-08-06T00:27:27.455Z,21.60
2018-08-06T00:29:55.622Z,21.50
2018-08-06T00:32:23.743Z,21.50
2018-08-06T00:34:51.880Z,21.50
2018-08-06T00:37:20.067Z,21.60
2018-08-06T00:39:48.197Z,21.60
2018-08-06T00:42:16.360Z,21.60
2018-08-06T00:44:44.496Z,21.50
2018-08-06T00:47:12.691Z,21.50
2018-08-06T00:49:40.852Z,21.50
2018-08-06T00:52:09.090Z,21.50
2018-08-06T00:54:37.266Z,21.40
2018-08-06T00:57:05.428Z,21.40
2018-08-06T00:59:33.594Z,21.40
2018-08-06T01:02:01.746Z,21.30
2018-08-06T01:04:29.883Z,21.30
2018-08-06T01:06:58.073Z,21.30
2018-08-06T01:09:26.259Z,21.30
2018-08-06T01:11:54.388Z,21.20
2018-08-06T01:14:22.532Z,21.20
2018-08-06T01:16:50.707Z,21.20
2018-08-06T01:19:18.891Z,21.20
2018-08-06T01:21:47.032Z,21.10
2018-08-06T01:24:15.205Z,21.10
2018-08-06T01:26:43.382Z,21.10
2018-08-06T01:29:11.588Z,21.10
2018-08-06T01:31:39.733Z,21.00
2018-08-06T01:34:07.887Z,20.90
2018-08-06T01:36:36.093Z,20.90
2018-08-06T01:39:07.653Z,20.80
2018-08-06T01:41:35.868Z,20.80
2018-08-06T01:44:04.292Z,20.70
2018-08-06T01:46:32.463Z,20.70
2018-08-06T01:49:00.602Z,20.80
2018-08-06T01:51:28.767Z,20.70
2018-08-06T01:53:56.939Z,20.80
2018-08-06T01:56:25.104Z,20.80
2018-08-06T01:58:53.513Z,20.80
2018-08-06T02:01:21.695Z,20.70
2018-08-06T02:03:49.844Z,20.60
2018-08-06T02:06:17.989Z,20.60
2018-08-06T02:08:46.146Z,20.60
2018-08-06T02:11:14.287Z,20.70
2018-08-06T02:13:42.469Z,20.70
2018-08-06T02:16:10.611Z,20.70
2018-08-06T02:18:38.772Z,20.70
2018-08-06T02:21:07.436Z,20.60
2018-08-06T02:23:35.581Z,20.70
2018-08-06T02:26:03.787Z,20.70
2018-08-06T02:28:31.981Z,20.70
2018-08-06T02:33:28.093Z,20.70
2018-08-06T02:35:56.233Z,20.60
2018-08-06T02:38:24.383Z,20.50
2018-08-06T02:40:52.557Z,20.50
2018-08-06T02:43:20.723Z,20.50
2018-08-06T02:45:48.883Z,20.40
2018-08-06T02:48:17.059Z,20.40
2018-08-06T02:50:45.216Z,20.40
2018-08-06T02:53:13.362Z,20.30
2018-08-06T02:55:41.514Z,20.30
2018-08-06T02:58:09.648Z,20.30
2018-08-06T03:00:37.792Z,20.20
2018-08-06T03:03:05.957Z,20.20
2018-08-06T03:05:34.130Z,20.10
2018-08-06T03:08:02.343Z,20.00
2018-08-06T03:10:30.512Z,20.00
2018-08-06T03:12:58.689Z,20.00
2018-08-06T03:15:26.834Z,19.90
2018-08-06T03:17:54.995Z,19.90
2018-08-06T03:20:23.166Z,19.90
2018-08-06T03:22:51.315Z,19.90
2018-08-06T03:25:19.498Z,19.80
2018-08-06T03:27:47.652Z,19.80
2018-08-06T03:30:16.933Z,19.80
2018-08-06T03:32:46.256Z,19.80
2018-08-06T03:35:14.544Z,19.80
2018-08-06T03:37:42.711Z,19.80
2018-08-06T03:40:11.118Z,19.70
2018-08-06T03:42:39.269Z,19.70
2018-08-06T03:45:08.646Z,19.70
2018-08-06T03:47:36.817Z,19.70
2018-08-06T03:50:06.069Z,19.70
2018-08-06T03:52:34.221Z,19.70
2018-08-06T03:55:03.768Z,19.70
2018-08-06T03:57:31.933Z,19.70
2018-08-06T04:00:00.080Z,19.80
2018-08-06T04:14:10.785Z,19.70
2018-08-06T04:16:42.968Z,19.70
2018-08-06T04:19:12.179Z,19.70
2018-08-06T04:21:40.584Z,19.70
2018-08-06T04:24:09.319Z,19.60
2018-08-06T04:26:38.462Z,19.70
2018-08-06T04:29:06.975Z,19.70
2018-08-06T04:31:35.790Z,19.70
2018-08-06T04:34:04.285Z,19.70
2018-08-06T04:39:01.513Z,19.80
2018-08-06T04:41:29.694Z,19.90
2018-08-06T04:43:57.877Z,20.10
2018-08-06T04:46:26.333Z,20.50
2018-08-06T04:48:54.497Z,21.10
2018-08-06T04:51:22.767Z,21.60
2018-08-06T04:53:51.881Z,21.90
2018-08-06T04:56:20.246Z,22.10
2018-08-06T04:58:48.423Z,22.20
2018-08-06T05:01:17.875Z,22.30
2018-08-06T05:03:46.012Z,22.20
2018-08-06T05:06:14.173Z,22.20
2018-08-06T05:08:42.507Z,22.20
2018-08-06T05:11:10.654Z,22.20
2018-08-06T05:13:39.947Z,22.10
2018-08-06T05:16:08.034Z,22.10
2018-08-06T05:18:36.194Z,21.90
2018-08-06T05:21:04.374Z,21.70
2018-08-06T05:23:52.005Z,21.50
2018-08-06T05:26:20.290Z,21.40
2018-08-06T05:28:49.232Z,21.40
2018-08-06T05:31:19.742Z,21.20
2018-08-06T05:33:47.901Z,21.20
2018-08-06T05:36:16.296Z,21.10
2018-08-06T05:38:44.429Z,21.10
2018-08-06T05:41:13.006Z,21.20
2018-08-06T05:43:41.151Z,21.20
2018-08-06T05:46:10.013Z,21.10
2018-08-06T05:48:38.709Z,21.10
2018-08-06T05:51:07.544Z,21.20
2018-08-06T05:53:35.683Z,21.30
2018-08-06T05:56:04.700Z,21.40
2018-08-06T05:58:32.891Z,21.40
2018-08-06T06:01:01.074Z,21.50
2018-08-06T06:03:29.240Z,21.50
2018-08-06T06:05:57.401Z,21.50
2018-08-06T06:08:25.570Z,21.50
2018-08-06T06:10:54.486Z,21.50
2018-08-06T06:13:22.644Z,21.60
2018-08-06T06:15:50.826Z,21.70
2018-08-06T06:18:19.056Z,21.70
2018-08-06T06:20:47.265Z,21.80
2018-08-06T06:23:15.446Z,21.90
2018-08-06T06:25:50.369Z,21.90
2018-08-06T06:28:18.516Z,22.00
2018-08-06T06:30:46.657Z,22.10
2018-08-06T06:33:15.857Z,22.10
2018-08-06T06:35:44.017Z,22.10
2018-08-06T06:38:12.220Z,22.10
2018-08-06T06:40:40.522Z,22.10
2018-08-06T06:43:08.689Z,22.20
2018-08-06T06:45:36.851Z,22.20
2018-08-06T06:48:05.033Z,22.20
2018-08-06T06:50:33.224Z,22.40
2018-08-06T06:53:01.359Z,22.40
2018-08-06T06:55:29.513Z,22.40
2018-08-06T06:57:58.253Z,22.50
2018-08-06T07:00:26.427Z,22.60
2018-08-06T07:02:54.556Z,22.60
2018-08-06T07:05:22.725Z,22.70
2018-08-06T07:07:51.080Z,22.70
2018-08-06T07:10:19.289Z,22.90
2018-08-06T07:12:47.733Z,23.00
2018-08-06T07:15:16.953Z,23.20
2018-08-06T07:17:47.340Z,23.20
2018-08-06T07:20:16.782Z,23.40
2018-08-06T07:22:45.508Z,23.30
2018-08-06T07:25:13.707Z,23.30
2018-08-06T07:27:42.754Z,23.40
2018-08-06T07:30:13.752Z,23.50
2018-08-06T07:32:42.768Z,23.70
2018-08-06T07:35:12.304Z,23.70
2018-08-06T07:37:40.769Z,23.70
2018-08-06T07:40:10.810Z,23.90
2018-08-06T07:42:39.310Z,23.90
2018-08-06T07:45:12.083Z,24.10
2018-08-06T07:47:40.269Z,24.10
2018-08-06T07:50:10.868Z,24.10
2018-08-06T07:52:39.300Z,24.10
2018-08-06T07:55:07.500Z,24.10
2018-08-06T07:57:35.692Z,24.30
2018-08-06T08:00:05.797Z,24.30
2018-08-06T08:02:33.980Z,24.50
2018-08-06T08:05:02.148Z,24.50
2018-08-06T08:07:30.303Z,24.60
2018-08-06T08:09:58.745Z,24.90
2018-08-06T08:12:26.886Z,25.00
2018-08-06T08:14:55.256Z,25.00
2018-08-06T08:17:24.026Z,25.10
2018-08-06T08:19:52.197Z,25.20
2018-08-06T08:22:20.352Z,25.30
2018-08-06T08:24:48.656Z,25.40
2018-08-06T08:27:16.853Z,25.40
2018-08-06T08:29:45.970Z,25.60
2018-08-06T08:32:14.131Z,25.70
2018-08-06T08:34:42.538Z,25.80
2018-08-06T08:37:10.742Z,26.00
2018-08-06T08:39:38.879Z,26.00
2018-08-06T08:42:07.066Z,26.00
2018-08-06T08:44:35.716Z,26.20
2018-08-06T08:47:04.036Z,26.40
2018-08-06T08:49:32.194Z,26.30
2018-08-06T08:52:00.580Z,26.80
2018-08-06T08:54:28.734Z,27.10
2018-08-06T08:56:56.921Z,27.20
2018-08-06T08:59:25.085Z,27.10
2018-08-06T09:01:56.268Z,27.20
2018-08-06T09:04:24.412Z,27.40
2018-08-06T09:06:52.660Z,27.40
2018-08-06T09:09:20.846Z,27.70
2018-08-06T09:14:16.936Z,28.00
2018-08-06T09:16:45.081Z,28.30
2018-08-06T09:19:13.249Z,28.30
2018-08-06T09:21:41.398Z,28.20
2018-08-06T09:24:09.563Z,28.40
2018-08-06T09:26:37.851Z,28.60
2018-08-06T09:29:06.049Z,29.00
2018-08-06T09:31:34.225Z,29.20
2018-08-06T09:34:02.648Z,29.10
2018-08-06T09:36:30.891Z,28.90
2018-08-06T09:38:59.077Z,28.70
2018-08-06T09:41:27.629Z,28.50
2018-08-06T09:43:55.784Z,28.30
2018-08-06T09:46:23.945Z,28.10
2018-08-06T09:48:52.169Z,28.20
2018-08-06T09:51:20.296Z,28.50
2018-08-06T09:53:48.496Z,29.00
2018-08-06T09:56:16.678Z,29.20
2018-08-06T09:58:45.203Z,29.50
2018-08-06T10:01:19.308Z,29.50
2018-08-06T10:03:48.713Z,29.60
2018-08-06T10:06:17.003Z,29.50
2018-08-06T10:08:45.143Z,29.50
2018-08-06T10:11:13.280Z,29.90
2018-08-06T10:16:10.043Z,30.10
2018-08-06T10:18:38.225Z,30.30
2018-08-06T10:21:07.269Z,30.30
2018-08-06T10:23:35.404Z,30.30
2018-08-06T10:26:03.585Z,30.50
2018-08-06T10:28:32.153Z,30.40
2018-08-06T10:31:00.320Z,30.70
2018-08-06T10:33:28.460Z,30.80
2018-08-06T10:35:56.693Z,30.80
2018-08-06T10:38:24.872Z,30.40
2018-08-06T10:40:53.061Z,30.70
2018-08-06T10:43:21.215Z,30.70
2018-08-06T10:45:49.357Z,30.80
2018-08-06T10:48:18.492Z,30.80
2018-08-06T10:50:47.141Z,31.10
2018-08-06T10:55:43.284Z,30.80
2018-08-06T10:58:11.512Z,31.10
2018-08-06T11:00:39.686Z,31.30
2018-08-06T11:03:07.822Z,31.40
2018-08-06T11:05:36.042Z,31.40
2018-08-06T11:08:04.529Z,31.00
2018-08-06T11:10:32.725Z,31.10
2018-08-06T11:13:00.900Z,31.50
2018-08-06T11:15:29.140Z,31.60
2018-08-06T11:17:57.313Z,31.80
2018-08-06T11:20:25.584Z,31.40
2018-08-06T11:22:54.256Z,31.40
2018-08-06T11:25:22.803Z,31.10
2018-08-06T11:27:51.027Z,31.40
2018-08-06T11:30:20.257Z,31.60
2018-08-06T11:32:49.160Z,31.20
2018-08-06T11:35:17.673Z,31.40
2018-08-06T11:37:45.857Z,31.60
2018-08-06T11:40:14.897Z,31.70
2018-08-06T11:42:44.157Z,31.90
2018-08-06T11:45:14.422Z,31.90
2018-08-06T11:47:42.653Z,32.00
2018-08-06T11:50:12.140Z,32.20
2018-08-06T11:52:40.413Z,32.00
2018-08-06T11:55:09.121Z,32.10
2018-08-06T11:57:37.402Z,32.10
2018-08-06T12:00:15.370Z,32.20
2018-08-06T12:02:43.565Z,32.40
2018-08-06T12:05:12.408Z,32.40
2018-08-06T12:07:40.636Z,32.30
2018-08-06T12:10:10.689Z,32.00
2018-08-06T12:12:38.981Z,32.00
2018-08-06T12:15:08.014Z,32.10
2018-08-06T12:17:36.170Z,32.20
2018-08-06T12:20:07.236Z,32.30
2018-08-06T12:22:35.457Z,32.40
2018-08-06T12:25:04.306Z,32.40
2018-08-06T12:27:32.421Z,32.30
2018-08-06T12:30:01.367Z,32.30
2018-08-06T12:32:29.550Z,32.20
2018-08-06T12:34:57.731Z,32.10
2018-08-06T12:37:26.142Z,32.40
2018-08-06T12:39:54.626Z,32.80
2018-08-06T12:42:22.883Z,33.10
2018-08-06T12:44:51.240Z,32.70
2018-08-06T12:47:19.447Z,32.70
2018-08-06T12:49:48.054Z,32.60
2018-08-06T12:52:16.476Z,32.80
2018-08-06T12:54:44.701Z,33.00
2018-08-06T12:57:12.928Z,33.10
2018-08-06T12:59:41.113Z,33.30
2018-08-06T13:02:09.238Z,33.30
2018-08-06T13:04:37.410Z,33.10
2018-08-06T13:07:05.586Z,33.00
2018-08-06T13:09:33.730Z,33.10
2018-08-06T13:12:01.916Z,33.00
2018-08-06T13:14:30.089Z,33.00
2018-08-06T13:16:58.262Z,33.00
2018-08-06T13:19:26.392Z,33.20
2018-08-06T13:21:55.088Z,33.30
2018-08-06T13:24:23.218Z,32.90
2018-08-06T13:26:51.412Z,33.10
2018-08-06T13:29:19.615Z,32.40
2018-08-06T13:31:48.137Z,32.60
2018-08-06T13:34:16.271Z,32.70
2018-08-06T13:36:44.567Z,32.70
2018-08-06T13:39:12.811Z,32.70
2018-08-06T13:41:41.008Z,32.70
2018-08-06T13:44:09.232Z,33.00
2018-08-06T13:46:37.389Z,32.80
2018-08-06T13:49:05.758Z,32.80
2018-08-06T13:51:33.923Z,32.70
2018-08-06T13:54:02.131Z,32.80
2018-08-06T13:56:31.217Z,32.50
2018-08-06T13:58:59.428Z,32.80
2018-08-06T14:01:27.583Z,33.30
2018-08-06T14:03:55.768Z,33.30
2018-08-06T14:06:23.936Z,33.50
2018-08-06T14:08:52.383Z,34.00
2018-08-06T14:11:20.657Z,33.70
2018-08-06T14:13:48.796Z,34.00
2018-08-06T14:16:17.005Z,34.10
2018-08-06T14:18:45.146Z,33.80
2018-08-06T14:21:13.380Z,33.50
2018-08-06T14:23:41.590Z,33.50
2018-08-06T14:26:09.784Z,33.50
2018-08-06T14:28:37.983Z,33.60
2018-08-06T14:31:06.456Z,33.60
2018-08-06T14:33:34.655Z,33.60
2018-08-06T14:36:02.799Z,33.90
2018-08-06T14:38:30.969Z,33.90
2018-08-06T14:40:59.155Z,33.90
2018-08-06T14:43:27.341Z,33.70
2018-08-06T14:45:55.512Z,33.70
2018-08-06T14:48:23.705Z,33.50
2018-08-06T14:50:51.876Z,33.10
2018-08-06T14:53:20.061Z,33.40
2018-08-06T14:55:48.448Z,33.80
2018-08-06T15:00:44.610Z,33.20
2018-08-06T15:03:12.786Z,33.10
2018-08-06T15:05:40.949Z,33.30
2018-08-06T15:08:09.108Z,33.70
2018-08-06T15:10:37.317Z,34.10
2018-08-06T15:13:05.812Z,34.30
2018-08-06T15:15:33.958Z,34.20
2018-08-06T15:18:02.158Z,34.00
2018-08-06T15:20:30.511Z,34.20
2018-08-06T15:22:58.701Z,34.50
2018-08-06T15:25:26.975Z,34.50
2018-08-06T15:27:55.095Z,34.70
2018-08-06T15:30:23.298Z,34.60
2018-08-06T15:32:51.472Z,34.50
2018-08-06T15:35:19.651Z,34.40
2018-08-06T15:37:47.874Z,34.40
2018-08-06T15:40:17.594Z,33.80
2018-08-06T15:42:45.734Z,33.90
2018-08-06T15:45:14.822Z,34.30
2018-08-06T15:47:43.839Z,34.60
2018-08-06T15:50:15.924Z,34.80
2018-08-06T15:52:44.048Z,35.20
2018-08-06T15:55:12.196Z,35.40
2018-08-06T15:57:40.392Z,35.70
2018-08-06T16:00:10.596Z,35.80
2018-08-06T16:02:38.847Z,35.80
2018-08-06T16:05:07.675Z,35.90
2018-08-06T16:07:35.858Z,35.80
2018-08-06T16:10:04.608Z,35.80
2018-08-06T16:12:32.796Z,36.00
2018-08-06T16:15:01.023Z,36.30
2018-08-06T16:17:29.186Z,36.50
2018-08-06T16:19:57.360Z,36.70
2018-08-06T16:22:25.507Z,36.80
2018-08-06T16:24:53.723Z,36.70
2018-08-06T16:27:21.847Z,37.20
2018-08-06T16:29:50.013Z,37.20
2018-08-06T16:32:18.358Z,37.40
2018-08-06T16:34:46.558Z,37.20
2018-08-06T16:37:14.730Z,37.20
2018-08-06T16:39:42.885Z,37.50
2018-08-06T16:42:11.106Z,37.50
2018-08-06T16:44:39.264Z,37.60
2018-08-06T16:47:07.554Z,37.80
2018-08-06T16:49:35.836Z,37.50
2018-08-06T16:52:04.034Z,37.10
2018-08-06T16:54:32.151Z,37.30
2018-08-06T16:57:00.366Z,37.10
2018-08-06T16:59:28.533Z,37.10
2018-08-06T17:01:56.674Z,37.70
2018-08-06T17:04:24.816Z,37.60
2018-08-06T17:06:53.073Z,37.90
2018-08-06T17:09:21.245Z,37.70
2018-08-06T17:11:49.412Z,37.90
2018-08-06T17:14:17.652Z,37.90
2018-08-06T17:16:45.812Z,38.20
2018-08-06T17:19:14.000Z,38.20
2018-08-06T17:21:42.600Z,37.80
2018-08-06T17:24:10.854Z,37.80
2018-08-06T17:26:39.031Z,37.50
2018-08-06T17:29:07.190Z,37.40
2018-08-06T17:31:35.361Z,36.70
2018-08-06T17:34:03.549Z,37.30
2018-08-06T17:36:31.821Z,37.70
2018-08-06T17:38:59.925Z,38.30
2018-08-06T17:41:28.069Z,38.80
2018-08-06T17:43:56.240Z,38.30
2018-08-06T17:46:24.411Z,38.20
2018-08-06T17:48:52.618Z,37.00
2018-08-06T17:51:20.980Z,36.00
2018-08-06T17:53:49.232Z,36.30
2018-08-06T17:56:17.391Z,36.10
2018-08-06T17:58:45.552Z,35.60
2018-08-06T18:01:13.721Z,35.50
2018-08-06T18:03:41.881Z,35.30
2018-08-06T18:06:10.258Z,35.00
2018-08-06T18:08:38.460Z,35.20
2018-08-06T18:11:07.167Z,35.30
2018-08-06T18:13:35.318Z,35.20
2018-08-06T18:16:03.504Z,35.00
2018-08-06T18:18:31.706Z,34.90
2018-08-06T18:20:59.880Z,35.40
2018-08-06T18:23:28.079Z,35.90
2018-08-06T18:25:56.278Z,36.20
2018-08-06T18:28:24.506Z,36.00
2018-08-06T18:30:53.260Z,35.90
2018-08-06T18:33:21.414Z,35.80
2018-08-06T18:35:49.578Z,35.60
2018-08-06T18:38:18.073Z,35.40
2018-08-06T18:40:47.121Z,34.20
2018-08-06T18:43:15.349Z,33.70
2018-08-06T18:45:43.553Z,33.30
2018-08-06T18:48:11.741Z,32.90
2018-08-06T18:50:40.136Z,32.50
2018-08-06T18:53:08.297Z,32.20
2018-08-06T18:55:36.504Z,32.00
2018-08-06T18:58:04.739Z,31.80
2018-08-06T19:00:32.964Z,31.60
2018-08-06T19:03:01.271Z,31.50
2018-08-06T19:05:30.592Z,31.40
2018-08-06T19:07:58.742Z,31.20
2018-08-06T19:10:26.902Z,31.10
2018-08-06T19:13:00.682Z,31.00
2018-08-06T19:15:28.800Z,30.90
2018-08-06T19:18:03.140Z,30.80
2018-08-06T19:20:31.373Z,30.60
2018-08-06T19:22:59.526Z,30.50
2018-08-06T19:25:31.391Z,30.50
2018-08-06T19:27:59.525Z,30.40
2018-08-06T19:30:33.190Z,30.10
2018-08-06T19:33:01.896Z,30.00
2018-08-06T19:35:30.069Z,29.90
2018-08-06T19:37:58.324Z,29.80
2018-08-06T19:40:26.697Z,29.60
2018-08-06T19:43:00.318Z,29.40
2018-08-06T19:45:28.585Z,29.30
2018-08-06T19:47:56.712Z,29.20
2018-08-06T19:50:30.346Z,29.10
2018-08-06T19:52:58.477Z,29.00
2018-08-06T19:55:32.066Z,28.90
2018-08-06T19:58:00.650Z,28.80
2018-08-06T20:00:29.276Z,28.70
2018-08-06T20:02:57.464Z,28.60
2018-08-06T20:05:27.039Z,28.60
2018-08-06T20:07:55.232Z,28.50
2018-08-06T20:10:23.405Z,28.40
2018-08-06T20:12:51.664Z,28.30
2018-08-06T20:15:20.285Z,28.20
2018-08-06T20:17:49.236Z,28.20
2018-08-06T20:20:17.388Z,28.10
2018-08-06T20:22:45.763Z,28.00
2018-08-06T20:25:16.958Z,28.00
2018-08-06T20:27:45.864Z,27.90
2018-08-06T20:30:15.117Z,27.90
2018-08-06T20:32:43.306Z,28.00
2018-08-06T20:35:13.610Z,27.90
2018-08-06T20:37:41.842Z,27.80
2018-08-06T20:40:10.825Z,27.90
2018-08-06T20:42:40.147Z,28.00
2018-08-06T20:45:10.701Z,28.00
2018-08-06T20:47:39.558Z,27.90
2018-08-06T20:50:09.361Z,27.80
2018-08-06T20:52:37.514Z,27.80
2018-08-06T20:55:06.263Z,27.70
2018-08-06T20:57:34.652Z,27.70
2018-08-06T21:00:02.859Z,27.90
2018-08-06T21:02:31.037Z,27.90
2018-08-06T21:04:59.235Z,28.00
2018-08-06T21:07:27.432Z,27.90
2018-08-06T21:09:55.579Z,27.70
2018-08-06T21:12:23.777Z,27.60
2018-08-06T21:14:51.956Z,27.60
2018-08-06T21:17:20.178Z,27.40
2018-08-06T21:19:48.336Z,27.40
2018-08-06T21:22:16.586Z,27.30
2018-08-06T21:24:45.384Z,27.30
2018-08-06T21:27:13.531Z,27.10
2018-08-06T21:29:41.712Z,27.20
2018-08-06T21:32:10.120Z,27.30
2018-08-06T21:34:38.308Z,27.10
2018-08-06T21:37:06.842Z,27.10
2018-08-06T21:39:35.177Z,27.00
2018-08-06T21:42:03.340Z,26.90
2018-08-06T21:46:59.499Z,26.70
2018-08-06T21:49:27.631Z,26.80
2018-08-06T21:51:55.830Z,26.80
2018-08-06T21:54:24.210Z,26.70
2018-08-06T21:56:52.348Z,26.70
2018-08-06T21:59:20.519Z,26.70
2018-08-06T22:01:48.722Z,26.70
2018-08-06T22:04:16.937Z,26.70
2018-08-06T22:06:45.156Z,26.70
2018-08-06T22:09:14.069Z,26.70
2018-08-06T22:11:42.294Z,26.60
2018-08-06T22:14:11.162Z,26.50
2018-08-06T22:16:39.324Z,26.40
2018-08-06T22:19:08.694Z,26.30
2018-08-06T22:21:37.093Z,26.30
2018-08-06T22:24:05.310Z,26.20
2018-08-06T22:26:33.521Z,26.10
2018-08-06T22:29:01.688Z,26.00
2018-08-06T22:31:29.875Z,25.90
2018-08-06T22:33:58.095Z,25.80
2018-08-06T22:36:26.629Z,25.80
2018-08-06T22:38:54.770Z,25.80
2018-08-06T22:41:23.720Z,25.70
2018-08-06T22:43:51.853Z,25.70
2018-08-06T22:46:19.996Z,25.70
2018-08-06T22:48:48.168Z,25.60
2018-08-06T22:51:16.416Z,25.40
2018-08-06T22:53:44.596Z,25.30
2018-08-06T22:56:12.781Z,25.30
2018-08-06T22:58:40.928Z,25.20
2018-08-06T23:01:10.315Z,25.20
2018-08-06T23:03:38.504Z,25.10
2018-08-06T23:06:07.016Z,25.00
2018-08-06T23:08:42.072Z,25.00
2018-08-06T23:11:10.174Z,25.00
2018-08-06T23:13:38.377Z,24.90
2018-08-06T23:16:06.513Z,24.90
2018-08-06T23:18:36.066Z,24.90
2018-08-06T23:21:04.265Z,24.90
2018-08-06T23:23:32.435Z,24.90
2018-08-06T23:26:00.567Z,24.80
2018-08-06T23:28:28.818Z,24.70
2018-08-06T23:30:56.990Z,24.80
2018-08-06T23:33:25.144Z,24.70
2018-08-06T23:35:53.357Z,24.60
2018-08-06T23:38:21.518Z,24.50
2018-08-06T23:40:49.682Z,24.50
2018-08-06T23:43:17.860Z,24.50
2018-08-06T23:45:46.016Z,24.40
2018-08-06T23:48:14.180Z,24.30
2018-08-06T23:50:42.390Z,24.30
2018-08-06T23:53:10.594Z,24.20
2018-08-06T23:55:38.678Z,24.10
2018-08-06T23:58:06.872Z,24.10
